Time;durP1;ratioP1;P1;durP2;ratioP2;P2;SDS_P1;SDS_P2;PMS_P1;PMS_P2;Temp;Humidity;BMP_temperature;BMP_pressure;BME280_temperature;BME280_humidity;BME280_pressure;Samples;Min_cycle;Max_cycle;Signal;HPM_P1;HPM_P2
2022/12/20 00:02:24;;;;;;;33.78;16.92;;;;;;;;;;5055045;28;20041;-80
2022/12/20 00:05:09;;;;;;;35.90;17.70;;;;;;;;;;5055560;28;20399;-83
2022/12/20 00:07:55;;;;;;;42.65;18.92;;;;;;;;;;5061357;28;20041;-80
2022/12/20 00:10:43;;;;;;;39.83;18.42;;;;;;;;;;5047262;28;20044;-80
2022/12/20 00:13:28;;;;;;;26.98;14.15;;;;;;;;;;5061607;28;20052;-84
2022/12/20 00:16:19;;;;;;;34.30;17.02;;;;;;;;;;5055767;28;20049;-85
2022/12/20 00:19:06;;;;;;;53.28;23.27;;;;;;;;;;5057934;28;20041;-82
2022/12/20 00:21:52;;;;;;;35.20;15.90;;;;;;;;;;5062566;28;20041;-80
2022/12/20 00:24:37;;;;;;;47.10;18.73;;;;;;;;;;5060900;28;20045;-81
2022/12/20 00:27:23;;;;;;;35.05;16.55;;;;;;;;;;5047231;28;20041;-84
2022/12/20 00:30:09;;;;;;;33.70;15.55;;;;;;;;;;5053981;28;20056;-81
2022/12/20 00:32:54;;;;;;;33.10;15.13;;;;;;;;;;5060722;28;20040;-82
2022/12/20 00:35:43;;;;;;;39.20;15.50;;;;;;;;;;5063746;28;20041;-83
2022/12/20 00:38:28;;;;;;;39.65;16.23;;;;;;;;;;5061292;28;20040;-82
2022/12/20 00:41:17;;;;;;;28.35;14.02;;;;;;;;;;5046808;28;20057;-83
2022/12/20 00:44:03;;;;;;;33.75;14.93;;;;;;;;;;5057363;28;20052;-82
2022/12/20 00:46:49;;;;;;;36.10;16.55;;;;;;;;;;5058537;28;20049;-83
2022/12/20 00:49:35;;;;;;;36.33;15.65;;;;;;;;;;5061553;28;20489;-82
2022/12/20 00:52:21;;;;;;;33.38;15.23;;;;;;;;;;5054873;28;20049;-81
2022/12/20 00:55:08;;;;;;;29.95;14.98;;;;;;;;;;5054759;28;20045;-82
2022/12/20 00:57:53;;;;;;;28.13;13.85;;;;;;;;;;5055151;28;20045;-82
2022/12/20 01:00:39;;;;;;;34.25;15.75;;;;;;;;;;5054335;28;20049;-80
2022/12/20 01:03:25;;;;;;;37.25;16.63;;;;;;;;;;5060056;28;20049;-82
2022/12/20 01:06:11;;;;;;;32.97;15.10;;;;;;;;;;5061136;28;20049;-82
2022/12/20 01:08:57;;;;;;;14.60;8.02;;;;;;;;;;5047491;28;20045;-81
2022/12/20 01:11:42;;;;;;;32.50;14.95;;;;;;;;;;5062713;28;20044;-83
2022/12/20 01:14:28;;;;;;;30.02;13.77;;;;;;;;;;5057142;28;20040;-82
2022/12/20 01:17:14;;;;;;;33.97;14.13;;;;;;;;;;5056902;28;20053;-82
2022/12/20 01:20:00;;;;;;;36.85;16.67;;;;;;;;;;5059875;28;20045;-81
2022/12/20 01:22:45;;;;;;;35.05;14.57;;;;;;;;;;5048694;28;20045;-82
2022/12/20 01:25:32;;;;;;;29.38;13.63;;;;;;;;;;5057516;28;20041;-82
2022/12/20 01:28:16;;;;;;;25.65;12.90;;;;;;;;;;5061646;28;20490;-81
2022/12/20 01:31:08;;;;;;;31.38;15.68;;;;;;;;;;5052946;28;20049;-81
2022/12/20 01:33:56;;;;;;;24.30;12.85;;;;;;;;;;5060031;28;20478;-81
2022/12/20 01:36:44;;;;;;;38.38;16.25;;;;;;;;;;5063448;28;20041;-82
2022/12/20 01:39:33;;;;;;;24.27;11.60;;;;;;;;;;5045418;28;20037;-81
2022/12/20 01:42:18;;;;;;;14.65;8.68;;;;;;;;;;5060065;28;20037;-81
2022/12/20 01:45:07;;;;;;;27.08;13.52;;;;;;;;;;5056589;28;20049;-79
2022/12/20 01:47:53;;;;;;;35.13;15.68;;;;;;;;;;5062817;28;20053;-81
2022/12/20 01:50:38;;;;;;;27.77;13.30;;;;;;;;;;5053757;28;20053;-83
2022/12/20 01:53:24;;;;;;;30.95;13.45;;;;;;;;;;5054613;28;20049;-84
2022/12/20 01:56:10;;;;;;;36.83;16.77;;;;;;;;;;5052842;28;20037;-83
2022/12/20 01:58:57;;;;;;;28.90;13.95;;;;;;;;;;5059075;28;20044;-81
2022/12/20 02:01:43;;;;;;;28.00;13.13;;;;;;;;;;5053608;28;20040;-81
2022/12/20 02:04:29;;;;;;;29.88;15.73;;;;;;;;;;5059349;28;20040;-81
2022/12/20 02:07:23;;;;;;;24.88;12.48;;;;;;;;;;5059276;28;20037;-80
2022/12/20 02:10:10;;;;;;;26.77;13.60;;;;;;;;;;5068619;28;20036;-81
2022/12/20 02:13:10;;;;;;;24.77;12.57;;;;;;;;;;5065670;28;20041;-81
2022/12/20 02:15:57;;;;;;;18.20;9.05;;;;;;;;;;5068002;28;20382;-80
2022/12/20 02:18:51;;;;;;;19.52;10.45;;;;;;;;;;5051897;28;20041;-81
2022/12/20 02:21:47;;;;;;;30.75;13.27;;;;;;;;;;5052332;28;20041;-81
2022/12/20 02:24:46;;;;;;;25.08;13.13;;;;;;;;;;5053276;28;20494;-83
2022/12/20 02:27:45;;;;;;;22.23;10.32;;;;;;;;;;5059672;28;20044;-81
2022/12/20 02:30:40;;;;;;;22.52;12.63;;;;;;;;;;5059131;28;20045;-83
2022/12/20 02:33:27;;;;;;;34.78;15.63;;;;;;;;;;5060189;28;20049;-80
2022/12/20 02:36:17;;;;;;;29.00;14.60;;;;;;;;;;5059226;28;20045;-81
2022/12/20 02:39:03;;;;;;;42.05;17.83;;;;;;;;;;5060619;28;20041;-81
2022/12/20 02:41:56;;;;;;;38.63;16.92;;;;;;;;;;5063065;28;20049;-81
2022/12/20 02:48:03;;;;;;;;;;;;;;;;;;5063045;28;20049;-80
2022/12/20 02:50:55;;;;;;;31.88;14.57;;;;;;;;;;5076627;28;20258;-81
2022/12/20 02:53:42;;;;;;;37.85;15.13;;;;;;;;;;5048996;28;20390;-84
2022/12/20 02:56:34;;;;;;;36.90;18.33;;;;;;;;;;5056964;28;20045;-82
2022/12/20 02:59:24;;;;;;;35.60;17.13;;;;;;;;;;5062218;28;20036;-81
2022/12/20 03:02:10;;;;;;;33.83;15.73;;;;;;;;;;5056836;28;20037;-82
2022/12/20 03:04:57;;;;;;;36.72;16.48;;;;;;;;;;5048194;28;20044;-82
2022/12/20 03:07:43;;;;;;;27.45;15.38;;;;;;;;;;5058183;28;20045;-84
2022/12/20 03:10:29;;;;;;;29.02;12.52;;;;;;;;;;5062329;28;20394;-82
2022/12/20 03:13:14;;;;;;;33.58;14.35;;;;;;;;;;5056487;28;20041;-82
2022/12/20 03:16:08;;;;;;;32.33;14.10;;;;;;;;;;5049407;28;20037;-81
2022/12/20 03:18:53;;;;;;;36.97;16.33;;;;;;;;;;5062503;28;20044;-84
2022/12/20 03:21:39;;;;;;;32.95;14.73;;;;;;;;;;5064148;28;20049;-83
2022/12/20 03:24:25;;;;;;;26.25;12.60;;;;;;;;;;5062299;28;20037;-81
2022/12/20 03:27:11;;;;;;;29.20;13.00;;;;;;;;;;5048326;28;20037;-83
2022/12/20 03:29:56;;;;;;;22.88;12.68;;;;;;;;;;5063034;28;20040;-84
2022/12/20 03:32:42;;;;;;;39.42;17.33;;;;;;;;;;5050219;28;20041;-84
2022/12/20 03:35:29;;;;;;;36.38;17.40;;;;;;;;;;5062944;28;20057;-83
2022/12/20 03:38:15;;;;;;;40.30;18.63;;;;;;;;;;5061360;28;20037;-81
2022/12/20 03:41:01;;;;;;;36.67;16.85;;;;;;;;;;5061723;28;20048;-83
2022/12/20 03:43:49;;;;;;;33.22;17.10;;;;;;;;;;5061653;28;20052;-83
2022/12/20 03:46:35;;;;;;;35.10;16.75;;;;;;;;;;5056223;28;20398;-82
2022/12/20 03:49:21;;;;;;;27.90;13.57;;;;;;;;;;5061377;28;20049;-83
2022/12/20 03:52:12;;;;;;;46.28;21.65;;;;;;;;;;5061567;28;20422;-83
2022/12/20 03:54:58;;;;;;;39.47;18.92;;;;;;;;;;5060983;28;20045;-83
2022/12/20 03:57:50;;;;;;;35.17;16.52;;;;;;;;;;5055088;28;20045;-83
2022/12/20 04:00:45;;;;;;;32.50;15.10;;;;;;;;;;5061011;28;20053;-81
2022/12/20 04:03:51;;;;;;;25.88;13.10;;;;;;;;;;5055665;28;20056;-82
2022/12/20 04:06:37;;;;;;;32.20;15.55;;;;;;;;;;5055355;28;20041;-81
2022/12/20 04:09:23;;;;;;;29.38;15.23;;;;;;;;;;5056965;28;20057;-83
2022/12/20 04:12:13;;;;;;;35.67;15.90;;;;;;;;;;5060965;28;20057;-84
2022/12/20 04:14:58;;;;;;;37.55;16.92;;;;;;;;;;5055337;28;20049;-80
2022/12/20 04:17:45;;;;;;;37.53;17.38;;;;;;;;;;5061142;28;20387;-84
2022/12/20 04:20:31;;;;;;;40.30;19.08;;;;;;;;;;5060922;28;20044;-84
2022/12/20 04:23:29;;;;;;;30.10;14.18;;;;;;;;;;5048312;28;20045;-84
2022/12/20 04:26:15;;;;;;;38.58;19.02;;;;;;;;;;5054535;28;20044;-83
2022/12/20 04:29:01;;;;;;;30.08;15.20;;;;;;;;;;5074306;28;20029;-80
2022/12/20 04:31:47;;;;;;;39.17;17.27;;;;;;;;;;5068748;28;20041;-84
2022/12/20 04:34:33;;;;;;;33.13;15.55;;;;;;;;;;5073829;28;20048;-84
2022/12/20 04:37:19;;;;;;;36.97;18.60;;;;;;;;;;5054712;28;20474;-81
2022/12/20 04:40:12;;;;;;;32.50;15.75;;;;;;;;;;5060031;28;20417;-84
2022/12/20 04:43:03;;;;;;;31.40;15.82;;;;;;;;;;5047354;28;20037;-84
2022/12/20 04:45:59;;;;;;;40.63;18.92;;;;;;;;;;5046483;28;20153;-84
2022/12/20 04:48:46;;;;;;;33.60;14.93;;;;;;;;;;5060604;28;20045;-81
2022/12/20 04:51:31;;;;;;;33.10;16.13;;;;;;;;;;5059886;28;20037;-83
2022/12/20 04:54:16;;;;;;;33.05;14.50;;;;;;;;;;5060182;28;20048;-81
2022/12/20 04:57:08;;;;;;;36.85;15.90;;;;;;;;;;5042712;28;20394;-81
2022/12/20 04:59:54;;;;;;;38.00;16.83;;;;;;;;;;5059962;28;20037;-81
2022/12/20 05:02:40;;;;;;;40.78;18.17;;;;;;;;;;5053295;28;20052;-81
2022/12/20 05:05:29;;;;;;;38.00;17.58;;;;;;;;;;5059857;28;20041;-84
2022/12/20 05:08:17;;;;;;;42.20;18.05;;;;;;;;;;5060005;28;20053;-83
2022/12/20 05:11:04;;;;;;;25.25;12.85;;;;;;;;;;5060191;28;20045;-83
2022/12/20 05:13:51;;;;;;;39.05;16.70;;;;;;;;;;5060026;28;20048;-80
2022/12/20 05:16:38;;;;;;;34.15;15.15;;;;;;;;;;5053276;28;20041;-80
2022/12/20 05:19:25;;;;;;;44.35;19.35;;;;;;;;;;5059898;28;20044;-81
2022/12/20 05:28:33;;;;;;;35.75;16.95;;;;;;;;;;5059552;28;20049;-83
2022/12/20 05:31:18;;;;;;;34.47;14.75;;;;;;;;;;5059239;28;20045;-82
2022/12/20 05:34:04;;;;;;;26.25;13.73;;;;;;;;;;5053019;28;20053;-82
2022/12/20 05:36:53;;;;;;;30.17;14.00;;;;;;;;;;5053870;28;20486;-81
2022/12/20 05:39:40;;;;;;;37.58;16.38;;;;;;;;;;5059163;28;20049;-83
2022/12/20 05:42:32;;;;;;;27.52;14.50;;;;;;;;;;5059784;28;20033;-81
2022/12/20 05:45:17;;;;;;;24.08;11.07;;;;;;;;;;5053379;28;20041;-83
2022/12/20 05:48:19;;;;;;;35.65;16.08;;;;;;;;;;5047964;28;20041;-81
2022/12/20 05:51:04;;;;;;;36.78;15.32;;;;;;;;;;5059587;28;20040;-82
2022/12/20 05:53:52;;;;;;;27.70;15.00;;;;;;;;;;5059524;28;20033;-84
2022/12/20 05:56:42;;;;;;;32.75;17.02;;;;;;;;;;5056366;28;20044;-85
2022/12/20 05:59:28;;;;;;;33.67;16.27;;;;;;;;;;5059294;28;20045;-82
2022/12/20 06:02:13;;;;;;;35.03;15.43;;;;;;;;;;5059632;28;20052;-87
2022/12/20 06:05:01;;;;;;;30.55;16.15;;;;;;;;;;5059838;28;20373;-86
2022/12/20 06:07:47;;;;;;;28.52;14.52;;;;;;;;;;5059945;28;20473;-86
2022/12/20 06:10:33;;;;;;;36.05;15.63;;;;;;;;;;5053603;28;20049;-85
2022/12/20 06:13:19;;;;;;;44.70;18.98;;;;;;;;;;5055419;28;20037;-84
2022/12/20 06:16:09;;;;;;;52.10;24.35;;;;;;;;;;5063422;28;20041;-87
2022/12/20 06:18:54;;;;;;;24.33;12.93;;;;;;;;;;5063413;28;20037;-84
2022/12/20 06:21:40;;;;;;;43.90;21.92;;;;;;;;;;5063684;28;20049;-84
2022/12/20 06:24:27;;;;;;;36.20;17.00;;;;;;;;;;5062947;28;20033;-82
2022/12/20 06:27:13;;;;;;;38.95;18.17;;;;;;;;;;5062786;28;20037;-82
2022/12/20 06:29:59;;;;;;;40.15;19.45;;;;;;;;;;5063220;28;20048;-84
2022/12/20 06:32:50;;;;;;;36.22;18.52;;;;;;;;;;5057406;28;20053;-83
2022/12/20 06:35:36;;;;;;;31.83;15.82;;;;;;;;;;5060303;28;20049;-81
2022/12/20 06:38:21;;;;;;;34.83;15.98;;;;;;;;;;5061126;28;20045;-82
2022/12/20 06:41:07;;;;;;;40.17;18.80;;;;;;;;;;5061430;28;20045;-84
2022/12/20 06:43:52;;;;;;;29.48;13.63;;;;;;;;;;5053541;28;20486;-84
2022/12/20 06:46:38;;;;;;;30.27;15.20;;;;;;;;;;5055395;28;20045;-84
2022/12/20 06:49:23;;;;;;;36.78;18.00;;;;;;;;;;5069069;28;20041;-85
2022/12/20 06:52:10;;;;;;;47.45;19.27;;;;;;;;;;5069163;28;20049;-83
2022/12/20 06:55:05;;;;;;;48.58;20.00;;;;;;;;;;5062764;28;20041;-85
2022/12/20 06:57:55;;;;;;;30.38;15.07;;;;;;;;;;5057138;28;20406;-85
2022/12/20 07:00:40;;;;;;;31.58;16.10;;;;;;;;;;5048744;28;20045;-85
2022/12/20 07:03:26;;;;;;;45.60;21.35;;;;;;;;;;5055149;28;20045;-84
2022/12/20 07:06:12;;;;;;;34.92;18.88;;;;;;;;;;5062706;28;20037;-85
2022/12/20 07:08:58;;;;;;;127.70;40.90;;;;;;;;;;5056535;28;20040;-84
2022/12/20 07:11:43;;;;;;;59.63;26.50;;;;;;;;;;5056428;28;20036;-84
2022/12/20 07:14:29;;;;;;;47.05;21.75;;;;;;;;;;5048712;28;20052;-86
2022/12/20 07:17:14;;;;;;;50.72;23.02;;;;;;;;;;5057134;28;20487;-84
2022/12/20 07:20:00;;;;;;;44.22;21.17;;;;;;;;;;5057946;28;20041;-83
2022/12/20 07:22:48;;;;;;;46.83;20.08;;;;;;;;;;5057051;28;20406;-86
2022/12/20 07:25:34;;;;;;;32.90;17.23;;;;;;;;;;5055663;28;20041;-86
2022/12/20 07:28:20;;;;;;;31.10;17.23;;;;;;;;;;5062340;28;20044;-85
2022/12/20 07:31:05;;;;;;;34.45;15.90;;;;;;;;;;5056205;28;20394;-82
2022/12/20 07:33:51;;;;;;;32.00;15.77;;;;;;;;;;5055436;28;20482;-82
2022/12/20 07:36:36;;;;;;;42.35;17.50;;;;;;;;;;5056093;28;20041;-82
2022/12/20 07:39:22;;;;;;;53.47;23.23;;;;;;;;;;5055830;28;20045;-84
2022/12/20 07:42:08;;;;;;;34.03;17.08;;;;;;;;;;5057621;28;20048;-84
2022/12/20 07:45:00;;;;;;;35.38;17.58;;;;;;;;;;5049039;28;20052;-82
2022/12/20 07:47:46;;;;;;;46.47;23.02;;;;;;;;;;5054689;28;20045;-82
2022/12/20 07:50:33;;;;;;;60.42;27.65;;;;;;;;;;5055435;28;20049;-82
2022/12/20 07:53:21;;;;;;;44.70;20.27;;;;;;;;;;5060974;28;20037;-82
2022/12/20 07:56:08;;;;;;;41.38;22.10;;;;;;;;;;5055105;28;20045;-82
2022/12/20 07:58:57;;;;;;;51.88;25.30;;;;;;;;;;5055538;28;20049;-84
2022/12/20 08:01:44;;;;;;;36.80;16.80;;;;;;;;;;5057503;28;20044;-84
2022/12/20 08:04:29;;;;;;;33.40;17.85;;;;;;;;;;5055262;28;20045;-82
2022/12/20 08:07:16;;;;;;;36.05;16.50;;;;;;;;;;5060951;28;20036;-83
2022/12/20 08:10:01;;;;;;;30.52;15.35;;;;;;;;;;5055315;28;20044;-81
2022/12/20 08:12:48;;;;;;;33.08;16.90;;;;;;;;;;5060821;28;20049;-83
2022/12/20 08:15:35;;;;;;;27.58;13.90;;;;;;;;;;5056694;28;20049;-85
2022/12/20 08:18:23;;;;;;;16.80;8.75;;;;;;;;;;5054011;28;20413;-84
2022/12/20 08:21:11;;;;;;;40.53;18.92;;;;;;;;;;5054518;28;20044;-77
2022/12/20 08:23:56;;;;;;;30.10;15.27;;;;;;;;;;5062706;28;20045;-80
2022/12/20 08:26:42;;;;;;;23.08;10.88;;;;;;;;;;5054321;28;20048;-78
2022/12/20 08:29:27;;;;;;;26.67;13.05;;;;;;;;;;5055286;28;20048;-78
2022/12/20 08:32:14;;;;;;;26.10;13.65;;;;;;;;;;5064219;28;20037;-79
2022/12/20 08:34:59;;;;;;;18.55;10.73;;;;;;;;;;5054719;28;20048;-80
2022/12/20 08:37:45;;;;;;;27.58;14.82;;;;;;;;;;5060858;28;20044;-80
2022/12/20 08:40:31;;;;;;;33.97;18.85;;;;;;;;;;5054252;28;20045;-80
2022/12/20 08:43:16;;;;;;;33.60;15.43;;;;;;;;;;5060577;28;20045;-79
2022/12/20 08:46:02;;;;;;;27.13;15.63;;;;;;;;;;5054375;28;20044;-79
2022/12/20 08:48:48;;;;;;;27.33;14.32;;;;;;;;;;5061282;28;20045;-78
2022/12/20 08:51:33;;;;;;;24.90;13.65;;;;;;;;;;5060871;28;20065;-81
2022/12/20 08:54:19;;;;;;;29.45;17.73;;;;;;;;;;5054742;28;20049;-84
2022/12/20 08:57:04;;;;;;;29.67;15.63;;;;;;;;;;5053589;28;20041;-77
2022/12/20 08:59:50;;;;;;;25.13;12.57;;;;;;;;;;5059458;28;20048;-80
2022/12/20 09:02:37;;;;;;;34.13;17.42;;;;;;;;;;5077371;28;20037;-80
2022/12/20 09:05:22;;;;;;;22.08;11.70;;;;;;;;;;5058362;28;20049;-79
2022/12/20 09:08:07;;;;;;;22.27;11.90;;;;;;;;;;5054011;28;20049;-80
2022/12/20 09:11:03;;;;;;;19.33;11.02;;;;;;;;;;5053700;28;20049;-79
2022/12/20 09:13:51;;;;;;;28.40;15.65;;;;;;;;;;5053819;28;20049;-81
2022/12/20 09:16:37;;;;;;;26.10;13.00;;;;;;;;;;5053513;28;20037;-80
2022/12/20 09:19:22;;;;;;;24.48;13.18;;;;;;;;;;5053862;28;20490;-80
2022/12/20 09:22:07;;;;;;;21.80;11.38;;;;;;;;;;5053862;28;20402;-79
2022/12/20 09:24:53;;;;;;;38.70;18.30;;;;;;;;;;5053503;28;20045;-80
2022/12/20 09:27:38;;;;;;;28.05;14.73;;;;;;;;;;5053418;28;20479;-80
2022/12/20 09:30:24;;;;;;;25.40;13.32;;;;;;;;;;5060294;28;20037;-79
2022/12/20 09:33:10;;;;;;;39.60;20.25;;;;;;;;;;5054296;28;20382;-80
2022/12/20 09:35:56;;;;;;;33.75;17.02;;;;;;;;;;5053400;28;20041;-80
2022/12/20 09:38:41;;;;;;;31.90;15.27;;;;;;;;;;5053346;28;20053;-79
2022/12/20 09:41:37;;;;;;;29.75;15.02;;;;;;;;;;5059399;28;20041;-79
2022/12/20 09:44:37;;;;;;;24.55;12.50;;;;;;;;;;5053360;28;20037;-80
2022/12/20 09:47:23;;;;;;;39.58;18.48;;;;;;;;;;5053343;28;20048;-78
2022/12/20 09:50:15;;;;;;;38.30;18.00;;;;;;;;;;5053170;28;20437;-80
2022/12/20 09:53:24;;;;;;;33.67;16.85;;;;;;;;;;5053528;28;20045;-79
2022/12/20 09:56:18;;;;;;;44.35;22.23;;;;;;;;;;5056286;28;20053;-80
2022/12/20 09:59:12;;;;;;;32.85;16.88;;;;;;;;;;5053102;28;20048;-81
2022/12/20 10:01:57;;;;;;;54.58;24.52;;;;;;;;;;5053476;28;20410;-80
2022/12/20 10:04:42;;;;;;;36.63;19.30;;;;;;;;;;5059254;28;20037;-81
2022/12/20 10:07:45;;;;;;;36.20;17.25;;;;;;;;;;5053142;28;20040;-80
2022/12/20 10:10:58;;;;;;;24.83;14.48;;;;;;;;;;5053891;28;20045;-80
2022/12/20 10:14:20;;;;;;;27.13;15.73;;;;;;;;;;5060009;28;20036;-80
2022/12/20 10:17:33;;;;;;;31.00;16.15;;;;;;;;;;5059264;28;20049;-80
2022/12/20 10:20:45;;;;;;;33.40;15.75;;;;;;;;;;5051867;28;20049;-81
2022/12/20 10:23:45;;;;;;;28.02;14.15;;;;;;;;;;5052919;28;20610;-80
2022/12/20 10:26:32;;;;;;;33.97;19.42;;;;;;;;;;5058375;28;20041;-81
2022/12/20 10:29:19;;;;;;;28.05;15.65;;;;;;;;;;5059664;28;20053;-81
2022/12/20 10:32:15;;;;;;;27.98;15.18;;;;;;;;;;5059345;28;20045;-80
2022/12/20 10:35:10;;;;;;;21.42;11.30;;;;;;;;;;5053435;28;20061;-81
2022/12/20 10:38:00;;;;;;;35.97;18.98;;;;;;;;;;5052996;28;20042;-80
2022/12/20 10:41:02;;;;;;;30.73;14.90;;;;;;;;;;5052445;28;20057;-80
2022/12/20 10:43:53;;;;;;;39.20;18.65;;;;;;;;;;5059744;28;20045;-80
2022/12/20 10:46:44;;;;;;;30.83;16.30;;;;;;;;;;5052819;28;20041;-80
2022/12/20 10:49:39;;;;;;;28.70;15.05;;;;;;;;;;5052475;28;20494;-80
2022/12/20 10:52:25;;;;;;;38.33;18.00;;;;;;;;;;5060006;28;20033;-79
2022/12/20 10:55:34;;;;;;;31.70;17.33;;;;;;;;;;5052864;28;20052;-80
2022/12/20 10:58:30;;;;;;;33.05;17.45;;;;;;;;;;5053029;28;20433;-79
2022/12/20 11:01:19;;;;;;;30.55;17.00;;;;;;;;;;5066836;28;20037;-81
2022/12/20 11:04:20;;;;;;;30.33;14.82;;;;;;;;;;5062259;28;20037;-80
2022/12/20 11:07:25;;;;;;;27.15;13.55;;;;;;;;;;5057263;28;20048;-83
2022/12/20 11:10:20;;;;;;;;;;;;;;;;;;5063432;28;20053;-80
2022/12/20 11:13:17;;;;;;;23.98;11.13;;;;;;;;;;5062914;28;19913;-79
2022/12/20 11:16:03;;;;;;;24.50;11.82;;;;;;;;;;5057455;28;20029;-81
2022/12/20 11:19:08;;;;;;;26.75;13.85;;;;;;;;;;5061623;28;20045;-81
2022/12/20 11:22:02;;;;;;;23.73;12.60;;;;;;;;;;5083067;28;20049;-80
2022/12/20 11:24:56;;;;;;;24.05;13.40;;;;;;;;;;5078599;28;20037;-80
2022/12/20 11:28:07;;;;;;;31.15;16.42;;;;;;;;;;5072516;28;20418;-80
2022/12/20 11:31:01;;;;;;;24.90;12.77;;;;;;;;;;5063652;28;20045;-80
2022/12/20 11:34:15;;;;;;;30.58;15.45;;;;;;;;;;5056241;28;20053;-81
2022/12/20 11:37:21;;;;;;;23.98;11.35;;;;;;;;;;5056668;28;20487;-81
2022/12/20 11:40:40;;;;;;;22.92;11.20;;;;;;;;;;5058627;28;20049;-81
2022/12/20 11:44:05;;;;;;;23.88;11.43;;;;;;;;;;5059586;28;20053;-80
2022/12/20 11:47:09;;;;;;;26.08;14.10;;;;;;;;;;5065036;28;20494;-80
2022/12/20 11:50:07;;;;;;;26.60;14.38;;;;;;;;;;5054816;28;20044;-81
2022/12/20 11:53:02;;;;;;;25.15;14.27;;;;;;;;;;5055888;28;20040;-80
2022/12/20 11:55:52;;;;;;;29.17;16.13;;;;;;;;;;5055481;28;20469;-81
2022/12/20 11:58:56;;;;;;;23.65;11.40;;;;;;;;;;5059215;28;20478;-79
2022/12/20 12:01:48;;;;;;;22.63;10.93;;;;;;;;;;5061144;28;20041;-80
2022/12/20 12:04:41;;;;;;;27.20;14.75;;;;;;;;;;5061049;28;20037;-80
2022/12/20 12:07:32;;;;;;;31.25;14.95;;;;;;;;;;5061369;28;20418;-81
2022/12/20 12:10:20;;;;;;;34.85;16.85;;;;;;;;;;5067155;28;20048;-82
2022/12/20 12:13:26;;;;;;;30.95;16.38;;;;;;;;;;5064039;28;20044;-81
2022/12/20 12:16:18;;;;;;;27.08;13.02;;;;;;;;;;5055233;28;20490;-80
2022/12/20 12:19:09;;;;;;;32.97;14.88;;;;;;;;;;5055065;28;20041;-80
2022/12/20 12:22:08;;;;;;;29.77;15.38;;;;;;;;;;5054785;28;20402;-81
2022/12/20 12:25:00;;;;;;;37.22;18.35;;;;;;;;;;5061570;28;20390;-81
2022/12/20 12:27:46;;;;;;;33.67;18.55;;;;;;;;;;5071869;28;20057;-80
2022/12/20 12:30:40;;;;;;;50.53;22.42;;;;;;;;;;5060569;28;20045;-81
2022/12/20 12:33:35;;;;;;;32.78;14.80;;;;;;;;;;5054698;28;20053;-81
2022/12/20 12:36:46;;;;;;;28.65;15.05;;;;;;;;;;5054714;28;20048;-82
2022/12/20 12:40:09;;;;;;;29.75;14.57;;;;;;;;;;5054640;28;20045;-79
2022/12/20 12:43:04;;;;;;;30.23;16.90;;;;;;;;;;5061094;28;20049;-81
2022/12/20 12:45:56;;;;;;;30.58;16.48;;;;;;;;;;5060969;28;20049;-80
2022/12/20 12:48:47;;;;;;;32.15;16.80;;;;;;;;;;5054071;28;20064;-82
2022/12/20 12:51:37;;;;;;;26.08;12.77;;;;;;;;;;5060385;28;20052;-81
2022/12/20 12:54:38;;;;;;;20.00;10.68;;;;;;;;;;5053706;28;20045;-81
2022/12/20 12:57:23;;;;;;;30.65;15.10;;;;;;;;;;5053402;28;20049;-80
2022/12/20 13:01:02;;;;;;;23.40;11.48;;;;;;;;;;5053922;28;20048;-81
2022/12/20 13:03:53;;;;;;;23.02;13.07;;;;;;;;;;5054991;28;20371;-82
2022/12/20 13:06:52;;;;;;;28.92;13.05;;;;;;;;;;5060832;28;20041;-80
2022/12/20 13:09:39;;;;;;;21.65;12.55;;;;;;;;;;5053438;28;20037;-80
2022/12/20 13:12:37;;;;;;;18.75;11.43;;;;;;;;;;5053986;28;20044;-80
2022/12/20 13:15:23;;;;;;;20.98;10.90;;;;;;;;;;5053591;28;20056;-82
2022/12/20 13:18:08;;;;;;;23.13;11.65;;;;;;;;;;5059275;28;20040;-82
2022/12/20 13:21:30;;;;;;;26.45;13.95;;;;;;;;;;5059985;28;20407;-82
2022/12/20 13:24:49;;;;;;;26.50;14.48;;;;;;;;;;5045505;28;20057;-81
2022/12/20 13:27:39;;;;;;;27.63;15.13;;;;;;;;;;5053980;28;20498;-80
2022/12/20 13:30:25;;;;;;;34.65;17.67;;;;;;;;;;5053804;28;20482;-81
2022/12/20 13:33:22;;;;;;;32.35;15.23;;;;;;;;;;5054053;28;20379;-80
2022/12/20 13:36:10;;;;;;;28.95;15.65;;;;;;;;;;5073171;28;20033;-80
2022/12/20 13:38:59;;;;;;;34.20;16.85;;;;;;;;;;5064763;28;20045;-80
2022/12/20 13:41:46;;;;;;;78.63;32.95;;;;;;;;;;5054799;28;20041;-82
2022/12/20 13:44:39;;;;;;;47.65;22.30;;;;;;;;;;5053071;28;20053;-80
2022/12/20 13:47:41;;;;;;;63.90;26.00;;;;;;;;;;5053503;28;20417;-79
2022/12/20 13:50:30;;;;;;;66.97;31.63;;;;;;;;;;5059319;28;20537;-80
2022/12/20 13:53:19;;;;;;;44.67;22.05;;;;;;;;;;5053055;28;20037;-80
2022/12/20 13:56:43;;;;;;;38.45;18.48;;;;;;;;;;5057589;28;20060;-80
2022/12/20 13:59:31;;;;;;;33.15;18.75;;;;;;;;;;5031072;28;20045;-79
2022/12/20 14:02:21;;;;;;;26.52;15.52;;;;;;;;;;5059550;28;20049;-81
2022/12/20 14:05:25;;;;;;;26.67;12.63;;;;;;;;;;5059072;28;20057;-82
2022/12/20 14:08:24;;;;;;;22.10;12.27;;;;;;;;;;5053390;28;20052;-82
2022/12/20 14:11:13;;;;;;;35.92;17.80;;;;;;;;;;5059685;28;20041;-82
2022/12/20 14:14:01;;;;;;;28.67;14.93;;;;;;;;;;5053152;28;20052;-79
2022/12/20 14:16:46;;;;;;;30.63;14.23;;;;;;;;;;5053188;28;20045;-79
2022/12/20 14:19:32;;;;;;;25.63;13.75;;;;;;;;;;5053161;28;20053;-80
2022/12/20 14:22:17;;;;;;;28.05;14.48;;;;;;;;;;5059408;28;20383;-80
2022/12/20 14:25:05;;;;;;;42.50;20.35;;;;;;;;;;5058850;28;20045;-81
2022/12/20 14:27:51;;;;;;;64.25;30.60;;;;;;;;;;5059506;28;20049;-80
2022/12/20 14:30:42;;;;;;;47.08;23.30;;;;;;;;;;5058683;28;20406;-80
2022/12/20 14:33:35;;;;;;;40.75;21.67;;;;;;;;;;5060163;28;20045;-80
2022/12/20 14:36:20;;;;;;;33.00;17.30;;;;;;;;;;5056213;28;20044;-79
2022/12/20 14:39:22;;;;;;;48.30;23.48;;;;;;;;;;5056998;28;20041;-81
2022/12/20 14:42:08;;;;;;;46.58;24.35;;;;;;;;;;5056738;28;20037;-81
2022/12/20 14:45:05;;;;;;;86.35;41.28;;;;;;;;;;5056820;28;20045;-79
2022/12/20 14:47:57;;;;;;;89.85;44.70;;;;;;;;;;5056502;28;20049;-79
2022/12/20 14:50:52;;;;;;;78.32;35.83;;;;;;;;;;5057121;28;20053;-79
2022/12/20 14:53:39;;;;;;;60.67;31.38;;;;;;;;;;5056824;28;20410;-79
2022/12/20 14:56:24;;;;;;;101.53;44.00;;;;;;;;;;5056823;28;20045;-79
2022/12/20 14:59:25;;;;;;;84.65;40.47;;;;;;;;;;5063268;28;20041;-80
2022/12/20 15:02:51;;;;;;;73.78;33.47;;;;;;;;;;5062238;28;20090;-79
2022/12/20 15:05:44;;;;;;;190.25;99.97;;;;;;;;;;5055722;28;20398;-81
2022/12/20 15:08:36;;;;;;;113.75;63.97;;;;;;;;;;5056103;28;20049;-81
2022/12/20 15:11:21;;;;;;;68.30;36.13;;;;;;;;;;5062864;28;20045;-79
2022/12/20 15:14:30;;;;;;;50.13;28.27;;;;;;;;;;5056200;28;20040;-80
2022/12/20 15:17:15;;;;;;;44.42;24.10;;;;;;;;;;5062548;28;20044;-79
2022/12/20 15:20:01;;;;;;;62.65;30.40;;;;;;;;;;5062865;28;20390;-81
2022/12/20 15:22:46;;;;;;;62.08;30.35;;;;;;;;;;5055874;28;20048;-80
2022/12/20 15:25:34;;;;;;;67.57;35.38;;;;;;;;;;5055748;28;20048;-80
2022/12/20 15:28:22;;;;;;;89.13;42.15;;;;;;;;;;5055703;28;20049;-79
2022/12/20 15:31:12;;;;;;;69.05;35.88;;;;;;;;;;5055977;28;20040;-79
2022/12/20 15:33:57;;;;;;;52.97;26.77;;;;;;;;;;5061494;28;20494;-83
2022/12/20 15:36:43;;;;;;;86.50;45.17;;;;;;;;;;5056016;28;20041;-81
2022/12/20 15:39:29;;;;;;;73.18;38.63;;;;;;;;;;5047235;28;20053;-80
2022/12/20 15:42:17;;;;;;;57.78;32.20;;;;;;;;;;5062152;28;20041;-79
2022/12/20 15:45:02;;;;;;;67.57;33.30;;;;;;;;;;5055618;28;20466;-82
2022/12/20 15:47:47;;;;;;;39.33;20.23;;;;;;;;;;5061236;28;20036;-80
2022/12/20 15:50:33;;;;;;;48.92;26.95;;;;;;;;;;5058056;28;20052;-83
2022/12/20 15:53:26;;;;;;;40.15;20.27;;;;;;;;;;5078816;28;20053;-80
2022/12/20 15:56:18;;;;;;;34.58;18.40;;;;;;;;;;5056507;28;20462;-79
2022/12/20 15:59:04;;;;;;;46.72;24.73;;;;;;;;;;5062398;28;20390;-81
2022/12/20 16:01:49;;;;;;;34.60;18.15;;;;;;;;;;5056609;28;20041;-82
2022/12/20 16:04:36;;;;;;;35.97;18.98;;;;;;;;;;5055360;28;20486;-82
2022/12/20 16:07:21;;;;;;;45.38;23.00;;;;;;;;;;5055304;28;20045;-82
2022/12/20 16:10:07;;;;;;;157.13;46.83;;;;;;;;;;5054121;28;20491;-81
2022/12/20 16:12:52;;;;;;;106.65;40.25;;;;;;;;;;5055310;28;20398;-82
2022/12/20 16:15:39;;;;;;;100.50;42.92;;;;;;;;;;5062700;28;20470;-81
2022/12/20 16:18:25;;;;;;;113.18;46.92;;;;;;;;;;5061803;28;20045;-80
2022/12/20 16:21:16;;;;;;;94.22;43.63;;;;;;;;;;5060520;28;20040;-81
2022/12/20 16:24:02;;;;;;;92.28;40.65;;;;;;;;;;5061446;28;20048;-83
2022/12/20 16:26:50;;;;;;;105.00;42.25;;;;;;;;;;5054923;28;20037;-80
2022/12/20 16:29:35;;;;;;;158.00;66.82;;;;;;;;;;5054734;28;20482;-83
2022/12/20 16:32:21;;;;;;;172.52;72.45;;;;;;;;;;5061467;28;20053;-78
2022/12/20 16:35:22;;;;;;;173.57;78.38;;;;;;;;;;5055108;28;20045;-82
2022/12/20 16:38:08;;;;;;;205.60;93.35;;;;;;;;;;5061243;28;20045;-81
2022/12/20 16:40:53;;;;;;;252.30;111.47;;;;;;;;;;5061349;28;20402;-81